createdAt,value
2018-09-30T00:00:40.927Z,65.92
2018-09-30T00:01:40.904Z,66.33
2018-09-30T00:02:40.894Z,67.47
2018-09-30T00:03:40.885Z,67.27
2018-09-30T00:04:40.904Z,67.47
2018-09-30T00:05:40.862Z,68.54
2018-09-30T00:06:40.854Z,67.27
2018-09-30T00:07:40.846Z,66.99
2018-09-30T00:08:40.829Z,66.88
2018-09-30T00:09:40.823Z,67.91
2018-09-30T00:10:40.840Z,67.30
2018-09-30T00:11:40.793Z,68.33
2018-09-30T00:12:40.813Z,68.54
2018-09-30T00:13:40.769Z,68.74
2018-09-30T00:14:40.759Z,68.57
2018-09-30T00:15:40.772Z,69.16
2018-09-30T00:16:40.736Z,70.32
2018-09-30T00:17:40.727Z,70.36
2018-09-30T00:18:40.733Z,70.87
2018-09-30T00:19:40.752Z,71.91
2018-09-30T00:20:40.733Z,71.29
2018-09-30T00:21:40.686Z,71.60
2018-09-30T00:22:40.677Z,73.08
2018-09-30T00:23:40.658Z,73.50
2018-09-30T00:24:40.654Z,72.88
2018-09-30T00:25:40.670Z,72.77
2018-09-30T00:26:40.659Z,72.60
2018-09-30T00:27:40.619Z,72.77
2018-09-30T00:28:40.612Z,73.29
2018-09-30T00:29:40.593Z,74.26
2018-09-30T00:30:40.584Z,74.15
2018-09-30T00:31:40.595Z,74.98
2018-09-30T00:32:40.559Z,74.29
2018-09-30T00:33:40.556Z,74.71
2018-09-30T00:34:40.543Z,74.71
2018-09-30T00:35:40.526Z,76.05
2018-09-30T00:36:40.544Z,76.26
2018-09-30T00:37:40.515Z,75.32
2018-09-30T00:38:40.493Z,75.95
2018-09-30T00:39:40.495Z,76.19
2018-09-30T00:40:40.475Z,76.19
2018-09-30T00:41:40.502Z,75.57
2018-09-30T00:42:40.455Z,76.61
2018-09-30T00:43:40.443Z,77.26
2018-09-30T00:44:40.430Z,77.06
2018-09-30T00:45:40.422Z,77.26
2018-09-30T00:46:40.437Z,77.16
2018-09-30T00:47:40.429Z,77.16
2018-09-30T00:48:40.383Z,77.47
2018-09-30T00:49:40.376Z,77.99
2018-09-30T00:50:40.371Z,78.82
2018-09-30T00:51:40.352Z,78.72
2018-09-30T00:52:40.371Z,78.75
2018-09-30T00:53:40.338Z,78.92
2018-09-30T00:54:40.319Z,79.17
2018-09-30T00:55:40.309Z,79.17
2018-09-30T00:56:40.299Z,79.06
2018-09-30T00:57:40.349Z,78.96
2018-09-30T00:58:40.278Z,79.90
2018-09-30T00:59:40.271Z,79.58
2018-09-30T01:00:40.256Z,80.52
2018-09-30T01:01:40.244Z,79.69
2018-09-30T01:02:40.276Z,80.31
2018-09-30T01:03:40.256Z,79.58
2018-09-30T01:04:40.212Z,79.79
2018-09-30T01:05:40.199Z,79.51
2018-09-30T01:06:40.201Z,80.21
2018-09-30T01:07:40.176Z,80.97
2018-09-30T01:08:40.191Z,81.11
2018-09-30T01:09:40.167Z,81.38
2018-09-30T01:10:40.166Z,80.97
2018-09-30T01:11:40.144Z,81.80
2018-09-30T01:12:40.121Z,81.70
2018-09-30T01:13:40.135Z,81.38
2018-09-30T01:14:40.097Z,81.18
2018-09-30T01:15:40.087Z,80.76
2018-09-30T01:16:40.077Z,81.18
2018-09-30T01:17:40.068Z,80.55
2018-09-30T01:18:40.091Z,80.97
2018-09-30T01:19:40.044Z,80.87
2018-09-30T01:20:40.097Z,80.97
2018-09-30T01:21:40.022Z,81.42
2018-09-30T01:22:40.013Z,81.84
2018-09-30T01:23:40.046Z,81.49
2018-09-30T01:24:40.015Z,81.63
2018-09-30T01:25:39.979Z,82.15
2018-09-30T01:26:39.969Z,81.59
2018-09-30T01:27:39.958Z,81.84
2018-09-30T01:28:39.944Z,81.80
2018-09-30T01:29:39.959Z,81.07
2018-09-30T01:30:39.935Z,81.63
2018-09-30T01:31:39.916Z,81.32
2018-09-30T01:32:39.901Z,81.84
2018-09-30T01:33:39.902Z,81.94
2018-09-30T01:34:39.909Z,81.84
2018-09-30T01:35:39.891Z,81.63
2018-09-30T01:36:39.866Z,82.56
2018-09-30T01:37:39.861Z,83.22
2018-09-30T01:38:39.842Z,83.01
2018-09-30T01:39:39.856Z,83.53
2018-09-30T01:40:39.860Z,83.33
2018-09-30T01:41:39.808Z,83.43
2018-09-30T01:42:39.805Z,83.89
2018-09-30T01:43:39.782Z,84.47
2018-09-30T01:44:39.816Z,84.41
2018-09-30T01:45:39.761Z,83.95
2018-09-30T01:46:39.758Z,84.58
2018-09-30T01:47:39.737Z,83.33
2018-09-30T01:48:39.738Z,83.95
2018-09-30T01:49:39.715Z,84.16
2018-09-30T01:50:39.747Z,83.53
2018-09-30T01:51:39.727Z,84.16
2018-09-30T01:52:39.685Z,84.58
2018-09-30T01:53:39.670Z,83.29
2018-09-30T01:54:39.658Z,84.27
2018-09-30T01:55:39.685Z,84.47
2018-09-30T01:56:39.652Z,83.64
2018-09-30T01:57:39.637Z,84.05
2018-09-30T01:58:39.627Z,84.58
2018-09-30T01:59:39.607Z,83.64
2018-09-30T02:00:39.626Z,86.03
2018-09-30T02:01:39.584Z,84.68
2018-09-30T02:02:39.599Z,84.27
2018-09-30T02:03:39.562Z,84.68
2018-09-30T02:04:39.548Z,84.58
2018-09-30T02:05:39.576Z,83.74
2018-09-30T02:06:39.536Z,84.16
2018-09-30T02:07:39.517Z,84.05
2018-09-30T02:08:39.505Z,84.09
2018-09-30T02:09:39.501Z,83.99
2018-09-30T02:10:39.520Z,84.51
2018-09-30T02:11:39.473Z,84.34
2018-09-30T02:12:39.468Z,85.06
2018-09-30T02:13:39.447Z,85.80
2018-09-30T02:14:39.440Z,85.59
2018-09-30T02:15:39.452Z,85.17
2018-09-30T02:16:39.447Z,84.86
2018-09-30T02:17:39.406Z,85.69
2018-09-30T02:18:39.398Z,85.28
2018-09-30T02:19:39.396Z,85.59
2018-09-30T02:20:39.378Z,85.49
2018-09-30T02:21:39.383Z,85.69
2018-09-30T02:22:39.363Z,85.49
2018-09-30T02:23:39.339Z,85.49
2018-09-30T02:24:39.336Z,85.17
2018-09-30T02:25:39.324Z,84.34
2018-09-30T02:26:39.404Z,84.75
2018-09-30T02:27:39.300Z,84.23
2018-09-30T02:28:39.294Z,84.44
2018-09-30T02:29:39.273Z,85.80
2018-09-30T02:30:39.302Z,85.28
2018-09-30T02:31:39.301Z,84.75
2018-09-30T02:32:39.255Z,84.80
2018-09-30T02:33:39.232Z,86.00
2018-09-30T02:34:39.224Z,85.49
2018-09-30T02:35:39.223Z,85.49
2018-09-30T02:36:39.260Z,85.73
2018-09-30T02:37:39.218Z,86.35
2018-09-30T02:38:39.187Z,85.94
2018-09-30T02:39:39.165Z,86.57
2018-09-30T02:40:39.157Z,86.35
2018-09-30T02:41:39.144Z,87.19
2018-09-30T02:42:39.170Z,87.50
2018-09-30T02:43:39.124Z,87.60
2018-09-30T02:44:39.140Z,87.50
2018-09-30T02:45:39.099Z,86.77
2018-09-30T02:46:39.099Z,86.35
2018-09-30T02:47:39.116Z,87.50
2018-09-30T02:48:39.066Z,85.94
2018-09-30T02:49:39.065Z,86.57
2018-09-30T02:50:39.077Z,86.42
2018-09-30T02:51:39.033Z,86.46
2018-09-30T02:52:39.051Z,86.73
2018-09-30T02:53:39.034Z,86.57
2018-09-30T02:54:39.006Z,86.46
2018-09-30T02:55:38.993Z,86.57
2018-09-30T02:56:38.982Z,86.57
2018-09-30T02:57:38.977Z,86.46
2018-09-30T02:58:38.987Z,85.83
2018-09-30T02:59:38.955Z,85.83
2018-09-30T03:00:38.944Z,85.59
2018-09-30T03:01:38.941Z,85.63
2018-09-30T03:02:38.927Z,85.42
2018-09-30T03:03:38.925Z,85.21
2018-09-30T03:04:38.891Z,86.25
2018-09-30T03:05:38.889Z,87.40
2018-09-30T03:06:38.867Z,86.35
2018-09-30T03:07:38.856Z,86.15
2018-09-30T03:08:38.894Z,85.83
2018-09-30T03:09:38.833Z,85.00
2018-09-30T03:10:38.823Z,85.52
2018-09-30T03:11:38.829Z,84.27
2018-09-30T03:12:38.808Z,84.27
2018-09-30T03:13:38.820Z,83.96
2018-09-30T03:14:38.800Z,84.13
2018-09-30T03:15:38.769Z,84.27
2018-09-30T03:16:38.761Z,85.52
2018-09-30T03:17:38.764Z,85.90
2018-09-30T03:18:38.732Z,84.38
2018-09-30T03:19:38.765Z,84.34
2018-09-30T03:20:38.720Z,85.73
2018-09-30T03:21:38.713Z,85.63
2018-09-30T03:22:38.691Z,85.73
2018-09-30T03:23:38.687Z,86.19
2018-09-30T03:24:38.707Z,85.88
2018-09-30T03:25:38.660Z,85.67
2018-09-30T03:26:38.651Z,85.35
2018-09-30T03:27:38.634Z,85.88
2018-09-30T03:28:38.622Z,85.98
2018-09-30T03:29:38.637Z,85.56
2018-09-30T03:30:38.606Z,85.98
2018-09-30T03:31:38.590Z,85.56
2018-09-30T03:32:38.654Z,85.98
2018-09-30T03:33:38.567Z,85.56
2018-09-30T03:34:38.594Z,85.67
2018-09-30T03:35:38.551Z,85.67
2018-09-30T03:36:38.534Z,86.50
2018-09-30T03:37:38.524Z,87.75
2018-09-30T03:38:38.522Z,87.43
2018-09-30T03:39:38.583Z,85.88
2018-09-30T03:40:38.512Z,85.46
2018-09-30T03:41:38.480Z,85.25
2018-09-30T03:42:38.477Z,85.46
2018-09-30T03:43:38.455Z,85.60
2018-09-30T03:44:38.450Z,85.56
2018-09-30T03:45:38.467Z,85.77
2018-09-30T03:46:38.425Z,85.67
2018-09-30T03:47:38.415Z,85.25
2018-09-30T03:48:38.405Z,85.46
2018-09-30T03:49:38.393Z,85.46
2018-09-30T03:50:38.428Z,85.56
2018-09-30T03:51:38.370Z,85.67
2018-09-30T03:52:38.356Z,86.29
2018-09-30T03:53:38.347Z,85.77
2018-09-30T03:54:38.335Z,85.88
2018-09-30T03:55:38.340Z,85.56
2018-09-30T03:56:38.397Z,85.60
2018-09-30T03:57:38.313Z,85.04
2018-09-30T03:58:38.311Z,83.94
2018-09-30T03:59:38.282Z,84.83
2018-09-30T04:00:38.280Z,85.08
2018-09-30T04:01:38.322Z,85.14
2018-09-30T04:02:38.248Z,84.94
2018-09-30T04:03:38.251Z,84.31
2018-09-30T04:04:38.223Z,86.19
2018-09-30T04:05:38.213Z,85.67
2018-09-30T04:06:38.258Z,85.35
2018-09-30T04:07:38.189Z,85.98
2018-09-30T04:08:38.191Z,85.67
2018-09-30T04:09:38.317Z,85.98
2018-09-30T04:10:38.175Z,85.56
2018-09-30T04:11:38.169Z,85.60
2018-09-30T04:12:38.157Z,85.81
2018-09-30T04:13:38.128Z,86.33
2018-09-30T04:14:38.115Z,87.58
2018-09-30T04:15:38.105Z,86.75
2018-09-30T04:16:38.096Z,87.73
2018-09-30T04:17:38.126Z,87.10
2018-09-30T04:18:38.074Z,87.73
2018-09-30T04:19:38.059Z,87.73
2018-09-30T04:20:38.048Z,87.73
2018-09-30T04:21:38.039Z,87.30
2018-09-30T04:22:38.061Z,87.41
2018-09-30T04:23:38.018Z,87.52
2018-09-30T04:24:38.003Z,87.41
2018-09-30T04:25:37.994Z,87.30
2018-09-30T04:26:37.981Z,87.52
2018-09-30T04:27:37.997Z,87.83
2018-09-30T04:28:37.960Z,88.04
2018-09-30T04:29:37.951Z,88.24
2018-09-30T04:30:37.937Z,88.14
2018-09-30T04:31:37.927Z,88.35
2018-09-30T04:32:37.976Z,87.52
2018-09-30T04:33:37.903Z,87.93
2018-09-30T04:34:37.894Z,88.04
2018-09-30T04:35:37.899Z,88.04
2018-09-30T04:36:37.872Z,86.89
2018-09-30T04:37:37.905Z,86.68
2018-09-30T04:38:37.860Z,85.64
2018-09-30T04:39:37.836Z,86.02
2018-09-30T04:40:37.828Z,86.22
2018-09-30T04:41:37.816Z,86.22
2018-09-30T04:42:37.804Z,86.75
2018-09-30T04:43:37.828Z,87.79
2018-09-30T04:44:37.784Z,86.37
2018-09-30T04:45:37.773Z,86.27
2018-09-30T04:46:37.761Z,86.06
2018-09-30T04:47:37.753Z,86.37
2018-09-30T04:48:37.779Z,86.27
2018-09-30T04:49:37.726Z,86.16
2018-09-30T04:50:37.719Z,86.68
2018-09-30T04:51:37.703Z,87.30
2018-09-30T04:52:37.692Z,87.30
2018-09-30T04:53:37.719Z,87.73
2018-09-30T04:54:37.672Z,87.62
2018-09-30T04:55:37.664Z,86.68
2018-09-30T04:56:37.653Z,86.47
2018-09-30T04:57:37.643Z,87.24
2018-09-30T04:58:37.665Z,88.14
2018-09-30T04:59:37.619Z,88.49
2018-09-30T05:00:37.610Z,88.60
2018-09-30T05:01:37.592Z,89.43
2018-09-30T05:02:37.589Z,89.85
2018-09-30T05:03:37.593Z,89.95
2018-09-30T05:04:37.585Z,89.32
2018-09-30T05:05:37.588Z,89.01
2018-09-30T05:06:37.552Z,89.01
2018-09-30T05:07:37.530Z,89.01
2018-09-30T05:08:37.522Z,89.01
2018-09-30T05:09:37.538Z,89.85
2018-09-30T05:10:37.499Z,89.64
2018-09-30T05:11:37.487Z,88.35
2018-09-30T05:12:37.478Z,87.52
2018-09-30T05:13:37.466Z,87.52
2018-09-30T05:14:37.478Z,87.52
2018-09-30T05:15:37.445Z,87.66
2018-09-30T05:16:37.429Z,88.18
2018-09-30T05:17:37.422Z,88.49
2018-09-30T05:18:37.411Z,89.22
2018-09-30T05:19:37.440Z,89.01
2018-09-30T05:20:37.428Z,88.24
2018-09-30T05:21:37.377Z,88.14
2018-09-30T05:22:37.369Z,87.41
2018-09-30T05:23:37.353Z,87.20
2018-09-30T05:24:37.346Z,85.96
2018-09-30T05:25:37.368Z,87.41
2018-09-30T05:26:37.319Z,86.99
2018-09-30T05:27:37.316Z,85.96
2018-09-30T05:28:37.304Z,85.53
2018-09-30T05:29:37.286Z,85.43
2018-09-30T05:30:37.319Z,86.27
2018-09-30T05:31:37.285Z,86.37
2018-09-30T05:32:37.254Z,86.27
2018-09-30T05:33:37.243Z,86.58
2018-09-30T05:34:37.234Z,87.76
2018-09-30T05:35:37.224Z,87.66
2018-09-30T05:36:37.241Z,88.14
2018-09-30T05:37:37.202Z,89.01
2018-09-30T05:38:37.191Z,89.43
2018-09-30T05:39:37.182Z,89.75
2018-09-30T05:40:37.164Z,89.68
2018-09-30T05:41:37.201Z,89.75
2018-09-30T05:42:37.146Z,89.95
2018-09-30T05:43:37.137Z,89.75
2018-09-30T05:44:37.124Z,89.91
2018-09-30T05:45:37.111Z,89.39
2018-09-30T05:46:37.136Z,88.14
2018-09-30T05:47:37.091Z,87.30
2018-09-30T05:48:37.078Z,87.62
2018-09-30T05:49:37.069Z,87.10
2018-09-30T05:50:37.065Z,86.75
2018-09-30T05:51:37.044Z,87.58
2018-09-30T05:52:37.061Z,87.52
2018-09-30T05:53:37.028Z,88.20
2018-09-30T05:54:37.011Z,88.52
2018-09-30T05:55:37.010Z,87.37
2018-09-30T05:56:36.992Z,87.58
2018-09-30T05:57:37.046Z,86.40
2018-09-30T05:58:36.992Z,86.29
2018-09-30T05:59:36.961Z,86.29
2018-09-30T06:00:36.951Z,86.29
2018-09-30T06:01:36.943Z,86.40
2018-09-30T06:02:36.961Z,86.19
2018-09-30T06:03:36.916Z,86.25
2018-09-30T06:04:36.919Z,85.63
2018-09-30T06:05:36.893Z,85.67
2018-09-30T06:06:36.884Z,85.21
2018-09-30T06:07:36.909Z,85.83
2018-09-30T06:08:36.909Z,85.73
2018-09-30T06:09:36.948Z,86.46
2018-09-30T06:10:36.843Z,86.46
2018-09-30T06:11:36.824Z,86.04
2018-09-30T06:12:36.832Z,85.28
2018-09-30T06:13:36.897Z,85.49
2018-09-30T06:14:36.795Z,85.80
2018-09-30T06:15:36.782Z,86.32
2018-09-30T06:16:36.775Z,86.32
2018-09-30T06:17:36.763Z,85.90
2018-09-30T06:18:36.788Z,86.21
2018-09-30T06:19:36.742Z,85.75
2018-09-30T06:20:36.728Z,85.75
2018-09-30T06:21:36.754Z,85.34
2018-09-30T06:22:36.711Z,85.44
2018-09-30T06:23:36.694Z,85.30
2018-09-30T06:24:36.689Z,85.10
2018-09-30T06:25:36.672Z,85.20
2018-09-30T06:26:36.709Z,84.99
2018-09-30T06:27:36.652Z,85.20
2018-09-30T06:28:36.643Z,84.16
2018-09-30T06:29:36.630Z,85.68
2018-09-30T06:30:36.665Z,85.36
2018-09-30T06:31:36.715Z,84.43
2018-09-30T06:32:36.628Z,84.64
2018-09-30T06:33:36.593Z,84.12
2018-09-30T06:34:36.580Z,84.33
2018-09-30T06:35:36.580Z,84.43
2018-09-30T06:36:36.576Z,84.50
2018-09-30T06:37:36.623Z,83.77
2018-09-30T06:38:36.559Z,84.50
2018-09-30T06:39:36.529Z,84.91
2018-09-30T06:40:36.515Z,84.91
2018-09-30T06:41:36.519Z,84.29
2018-09-30T06:42:36.520Z,84.50
2018-09-30T06:43:36.492Z,84.08
2018-09-30T06:44:36.500Z,83.77
2018-09-30T06:45:36.493Z,84.29
2018-09-30T06:46:36.447Z,84.05
2018-09-30T06:47:36.460Z,84.15
2018-09-30T06:48:36.419Z,83.73
2018-09-30T06:49:36.455Z,84.05
2018-09-30T06:50:36.465Z,83.73
2018-09-30T06:51:36.386Z,84.77
2018-09-30T06:52:36.413Z,84.63
2018-09-30T06:53:36.375Z,84.21
2018-09-30T06:54:36.365Z,84.94
2018-09-30T06:55:36.349Z,84.63
2018-09-30T06:56:36.342Z,84.07
2018-09-30T06:57:36.343Z,82.62
2018-09-30T06:58:36.311Z,81.48
2018-09-30T06:59:36.302Z,82.27
2018-09-30T07:00:36.285Z,81.96
2018-09-30T07:01:36.276Z,79.54
2018-09-30T07:02:36.299Z,80.68
2018-09-30T07:03:36.259Z,80.16
2018-09-30T07:04:36.251Z,78.57
2018-09-30T07:05:36.251Z,78.74
2018-09-30T07:06:36.231Z,78.81
2018-09-30T07:07:36.210Z,76.84
2018-09-30T07:08:36.225Z,74.88
2018-09-30T07:09:36.197Z,74.84
2018-09-30T07:10:36.191Z,73.60
2018-09-30T07:11:36.168Z,73.05
2018-09-30T07:12:36.163Z,72.40
2018-09-30T07:13:36.176Z,73.12
2018-09-30T07:14:36.140Z,72.19
2018-09-30T07:15:36.133Z,71.33
2018-09-30T07:16:36.116Z,71.02
2018-09-30T07:17:36.101Z,71.02
2018-09-30T07:18:36.153Z,70.30
2018-09-30T07:19:36.077Z,70.68
2018-09-30T07:20:36.079Z,69.44
2018-09-30T07:21:36.090Z,68.82
2018-09-30T07:22:36.055Z,70.65
2018-09-30T07:23:36.032Z,71.26
2018-09-30T07:24:36.031Z,70.96
2018-09-30T07:25:36.011Z,70.75
2018-09-30T07:26:36.045Z,69.82
2018-09-30T07:27:36.000Z,71.16
2018-09-30T07:28:35.976Z,71.99
2018-09-30T07:29:36.005Z,69.07
2018-09-30T07:30:35.959Z,68.86
2018-09-30T07:31:35.989Z,69.38
2018-09-30T07:32:35.947Z,70.72
2018-09-30T07:33:35.958Z,69.24
2018-09-30T07:34:35.908Z,68.93
2018-09-30T07:35:35.900Z,68.01
2018-09-30T07:36:35.945Z,66.36
2018-09-30T07:37:35.912Z,66.84
2018-09-30T07:38:35.867Z,66.53
2018-09-30T07:39:35.924Z,66.43
2018-09-30T07:40:35.842Z,68.05
2018-09-30T07:41:35.836Z,66.09
2018-09-30T07:42:35.842Z,67.84
2018-09-30T07:43:35.808Z,66.50
2018-09-30T07:44:35.816Z,67.63
2018-09-30T07:45:35.791Z,66.30
2018-09-30T07:46:35.789Z,65.55
2018-09-30T07:47:35.806Z,64.83
2018-09-30T07:48:35.761Z,66.47
2018-09-30T07:49:35.741Z,65.75
2018-09-30T07:50:35.739Z,66.78
2018-09-30T07:51:35.730Z,67.40
2018-09-30T07:52:35.760Z,66.58
2018-09-30T07:53:35.728Z,66.54
2018-09-30T07:54:35.694Z,67.26
2018-09-30T07:55:35.674Z,66.34
2018-09-30T07:56:35.670Z,65.41
2018-09-30T07:57:35.660Z,66.44
2018-09-30T07:58:35.670Z,65.17
2018-09-30T07:59:36.632Z,66.24
2018-09-30T08:00:35.626Z,65.62
2018-09-30T08:01:35.611Z,66.00
2018-09-30T08:02:35.604Z,66.41
2018-09-30T08:03:35.624Z,65.48
2018-09-30T08:04:35.578Z,64.97
2018-09-30T08:05:35.568Z,64.87
2018-09-30T08:06:35.561Z,66.20
2018-09-30T08:07:35.543Z,65.56
2018-09-30T08:08:35.573Z,65.48
2018-09-30T08:09:35.525Z,66.38
2018-09-30T08:10:35.516Z,66.17
2018-09-30T08:11:35.520Z,65.86
2018-09-30T08:12:35.503Z,66.58
2018-09-30T08:13:35.509Z,66.48
2018-09-30T08:14:35.500Z,66.38
2018-09-30T08:15:35.453Z,65.56
2018-09-30T08:16:35.518Z,65.32
2018-09-30T08:17:35.462Z,65.73
2018-09-30T08:18:35.425Z,66.17
2018-09-30T08:19:35.444Z,66.79
2018-09-30T08:20:35.396Z,65.14
2018-09-30T08:21:35.390Z,65.56
2018-09-30T08:22:35.377Z,66.10
2018-09-30T08:23:35.362Z,66.61
2018-09-30T08:24:35.459Z,66.38
2018-09-30T08:25:35.361Z,67.51
2018-09-30T08:26:35.329Z,66.79
2018-09-30T08:27:35.321Z,66.69
2018-09-30T08:28:35.305Z,66.79
2018-09-30T08:29:35.310Z,66.25
2018-09-30T08:30:35.364Z,66.96
2018-09-30T08:31:35.273Z,66.25
2018-09-30T08:32:35.308Z,64.98
2018-09-30T08:33:35.253Z,66.42
2018-09-30T08:34:35.238Z,66.31
2018-09-30T08:35:35.263Z,65.50
2018-09-30T08:36:35.223Z,66.28
2018-09-30T08:37:35.204Z,65.36
2018-09-30T08:38:35.194Z,65.09
2018-09-30T08:39:35.259Z,65.50
2018-09-30T08:40:35.207Z,65.19
2018-09-30T08:41:35.159Z,66.42
2018-09-30T08:42:35.153Z,65.83
2018-09-30T08:43:35.157Z,66.35
2018-09-30T08:44:35.129Z,66.35
2018-09-30T08:45:35.148Z,66.63
2018-09-30T08:46:35.152Z,66.96
2018-09-30T08:47:35.132Z,66.73
2018-09-30T08:48:35.089Z,67.14
2018-09-30T08:49:35.069Z,66.31
2018-09-30T08:50:35.098Z,66.73
2018-09-30T08:51:35.052Z,66.52
2018-09-30T08:52:35.036Z,66.80
2018-09-30T08:53:35.027Z,67.11
2018-09-30T08:54:35.045Z,66.60
2018-09-30T08:55:35.008Z,66.25
2018-09-30T08:56:34.992Z,66.16
2018-09-30T08:57:34.983Z,66.36
2018-09-30T08:58:34.970Z,65.10
2018-09-30T08:59:35.028Z,66.22
2018-09-30T09:00:34.951Z,66.43
2018-09-30T09:01:34.937Z,66.30
2018-09-30T09:02:34.925Z,66.50
2018-09-30T09:03:34.917Z,66.71
2018-09-30T09:04:34.940Z,65.07
2018-09-30T09:05:34.894Z,65.99
2018-09-30T09:06:34.884Z,64.97
2018-09-30T09:07:34.880Z,66.06
2018-09-30T09:08:34.865Z,66.16
2018-09-30T09:09:34.862Z,66.47
2018-09-30T09:10:34.857Z,66.06
2018-09-30T09:11:34.839Z,66.85
2018-09-30T09:12:34.831Z,66.24
2018-09-30T09:13:34.799Z,65.24
2018-09-30T09:14:34.796Z,65.42
2018-09-30T09:15:34.906Z,65.83
2018-09-30T09:16:34.764Z,66.44
2018-09-30T09:17:34.766Z,66.31
2018-09-30T09:18:34.766Z,66.00
2018-09-30T09:19:34.776Z,65.80
2018-09-30T09:20:34.733Z,66.41
2018-09-30T09:21:34.713Z,65.90
2018-09-30T09:22:34.746Z,66.10
2018-09-30T09:23:34.759Z,66.10
2018-09-30T09:24:34.699Z,66.31
2018-09-30T09:25:34.668Z,66.20
2018-09-30T09:26:34.665Z,65.69
2018-09-30T09:27:34.654Z,65.69
2018-09-30T09:28:34.719Z,65.87
2018-09-30T09:29:34.629Z,65.25
2018-09-30T09:30:34.607Z,65.12
2018-09-30T09:31:34.620Z,65.73
2018-09-30T09:32:34.586Z,65.33
2018-09-30T09:33:34.629Z,65.63
2018-09-30T09:34:34.561Z,65.84
2018-09-30T09:35:34.565Z,64.92
2018-09-30T09:36:34.554Z,64.92
2018-09-30T09:37:34.528Z,65.02
2018-09-30T09:38:34.566Z,65.53
2018-09-30T09:39:34.577Z,65.05
2018-09-30T09:40:34.499Z,65.22
2018-09-30T09:41:34.483Z,64.81
2018-09-30T09:42:34.470Z,66.86
2018-09-30T09:43:34.491Z,65.12
2018-09-30T09:44:34.483Z,64.81
2018-09-30T09:45:34.437Z,65.02
2018-09-30T09:46:34.430Z,64.81
2018-09-30T09:47:34.435Z,64.61
2018-09-30T09:48:34.403Z,65.02
2018-09-30T09:49:34.396Z,65.84
2018-09-30T09:50:34.429Z,65.22
2018-09-30T09:51:34.383Z,64.61
2018-09-30T09:52:34.376Z,66.14
2018-09-30T09:53:34.367Z,66.01
2018-09-30T09:54:34.352Z,65.91
2018-09-30T09:55:34.353Z,65.09
2018-09-30T09:56:34.324Z,64.89
2018-09-30T09:57:34.305Z,66.11
2018-09-30T09:58:34.297Z,64.34
2018-09-30T09:59:34.281Z,65.37
2018-09-30T10:00:34.308Z,65.47
2018-09-30T10:01:34.262Z,64.72
2018-09-30T10:02:34.252Z,64.93
2018-09-30T10:03:34.235Z,66.15
2018-09-30T10:04:34.233Z,65.03
2018-09-30T10:05:34.221Z,64.83
2018-09-30T10:06:34.225Z,64.08
2018-09-30T10:07:34.198Z,64.28
2018-09-30T10:08:34.187Z,64.79
2018-09-30T10:09:34.166Z,65.10
2018-09-30T10:10:34.161Z,64.49
2018-09-30T10:11:34.168Z,63.54
2018-09-30T10:12:34.145Z,63.34
2018-09-30T10:13:34.125Z,63.44
2018-09-30T10:14:34.116Z,64.15
2018-09-30T10:15:34.103Z,64.66
2018-09-30T10:16:34.120Z,63.75
2018-09-30T10:17:34.087Z,64.25
2018-09-30T10:18:34.078Z,64.63
2018-09-30T10:19:34.085Z,64.22
2018-09-30T10:20:34.051Z,63.34
2018-09-30T10:21:34.059Z,63.20
2018-09-30T10:22:34.031Z,63.85
2018-09-30T10:23:34.020Z,64.73
2018-09-30T10:24:34.009Z,64.73
2018-09-30T10:25:34.017Z,65.04
2018-09-30T10:26:33.999Z,65.45
2018-09-30T10:27:33.975Z,66.23
2018-09-30T10:28:33.966Z,64.60
2018-09-30T10:29:33.955Z,63.89
2018-09-30T10:30:33.967Z,63.58
2018-09-30T10:31:33.932Z,64.26
2018-09-30T10:32:33.920Z,64.37
2018-09-30T10:33:33.909Z,64.57
2018-09-30T10:34:33.904Z,64.26
2018-09-30T10:35:33.921Z,63.35
2018-09-30T10:36:33.875Z,63.42
2018-09-30T10:37:33.873Z,64.44
2018-09-30T10:38:34.007Z,63.53
2018-09-30T10:39:33.845Z,64.54
2018-09-30T10:40:33.846Z,62.98
2018-09-30T10:41:33.843Z,62.58
2018-09-30T10:42:33.805Z,61.87
2018-09-30T10:43:33.792Z,61.97
2018-09-30T10:44:33.784Z,61.43
2018-09-30T10:45:33.772Z,61.22
2018-09-30T10:46:33.777Z,62.98
2018-09-30T10:47:33.749Z,61.36
2018-09-30T10:48:33.748Z,61.33
2018-09-30T10:49:33.738Z,61.94
2018-09-30T10:50:33.721Z,61.53
2018-09-30T10:51:33.723Z,61.94
2018-09-30T10:52:33.716Z,63.06
2018-09-30T10:53:33.689Z,64.07
2018-09-30T10:54:33.673Z,61.02
2018-09-30T10:55:33.664Z,61.43
2018-09-30T10:56:33.686Z,63.36
2018-09-30T10:57:33.636Z,61.94
2018-09-30T10:58:33.644Z,62.85
2018-09-30T10:59:33.628Z,62.45
2018-09-30T11:00:33.608Z,61.53
2018-09-30T11:01:33.611Z,62.14
2018-09-30T11:02:33.610Z,62.35
2018-09-30T11:03:33.579Z,62.55
2018-09-30T11:04:33.578Z,63.36
2018-09-30T11:05:33.551Z,62.85
2018-09-30T11:06:33.542Z,62.32
2018-09-30T11:07:33.572Z,63.23
2018-09-30T11:08:33.516Z,63.13
2018-09-30T11:09:33.572Z,63.54
2018-09-30T11:10:33.487Z,63.60
2018-09-30T11:11:33.483Z,61.17
2018-09-30T11:12:33.489Z,60.63
2018-09-30T11:13:33.461Z,61.75
2018-09-30T11:14:33.454Z,61.34
2018-09-30T11:15:33.446Z,61.55
2018-09-30T11:16:33.425Z,60.83
2018-09-30T11:17:33.443Z,61.01
2018-09-30T11:18:33.407Z,61.32
2018-09-30T11:19:33.390Z,61.32
2018-09-30T11:20:33.381Z,61.21
2018-09-30T11:21:33.374Z,61.32
2018-09-30T11:22:33.482Z,60.60
2018-09-30T11:23:33.354Z,60.60
2018-09-30T11:24:33.339Z,61.72
2018-09-30T11:25:33.323Z,60.40
2018-09-30T11:26:33.318Z,61.72
2018-09-30T11:27:33.303Z,61.72
2018-09-30T11:28:33.315Z,60.81
2018-09-30T11:29:33.283Z,61.11
2018-09-30T11:30:33.269Z,61.52
2018-09-30T11:31:33.254Z,61.82
2018-09-30T11:32:33.258Z,61.01
2018-09-30T11:33:33.253Z,61.62
2018-09-30T11:34:33.220Z,60.30
2018-09-30T11:35:33.217Z,61.41
2018-09-30T11:36:33.213Z,61.62
2018-09-30T11:37:33.193Z,61.85
2018-09-30T11:38:33.226Z,61.82
2018-09-30T11:39:33.170Z,62.13
2018-09-30T11:40:33.154Z,63.32
2018-09-30T11:41:33.146Z,63.75
2018-09-30T11:42:33.142Z,61.49
2018-09-30T11:43:33.164Z,61.08
2018-09-30T11:44:33.133Z,60.98
2018-09-30T11:45:33.111Z,61.29
2018-09-30T11:46:33.087Z,61.08
2018-09-30T11:47:33.079Z,60.17
2018-09-30T11:48:33.120Z,60.58
2018-09-30T11:49:33.080Z,61.16
2018-09-30T11:50:33.060Z,60.14
2018-09-30T11:51:33.043Z,60.75
2018-09-30T11:52:33.046Z,61.16
2018-09-30T11:53:33.012Z,60.85
2018-09-30T11:54:33.017Z,61.25
2018-09-30T11:55:32.987Z,62.57
2018-09-30T11:56:32.984Z,61.25
2018-09-30T11:57:32.971Z,60.65
2018-09-30T11:58:32.954Z,61.23
2018-09-30T11:59:32.982Z,60.52
2018-09-30T12:00:32.935Z,60.82
2018-09-30T12:01:32.921Z,59.91
2018-09-30T12:02:32.923Z,61.13
2018-09-30T12:03:32.902Z,59.99
2018-09-30T12:04:32.928Z,60.69
2018-09-30T12:05:32.883Z,60.86
2018-09-30T12:06:32.868Z,60.86
2018-09-30T12:07:32.850Z,60.36
2018-09-30T12:08:32.843Z,61.47
2018-09-30T12:09:32.851Z,60.74
2018-09-30T12:10:32.853Z,60.43
2018-09-30T12:11:32.809Z,59.65
2018-09-30T12:12:32.800Z,59.65
2018-09-30T12:13:32.785Z,60.46
2018-09-30T12:14:32.786Z,61.68
2018-09-30T12:15:32.785Z,59.95
2018-09-30T12:16:32.750Z,60.97
2018-09-30T12:17:32.744Z,62.05
2018-09-30T12:18:32.765Z,59.92
2018-09-30T12:19:32.715Z,59.95
2018-09-30T12:20:32.747Z,60.36
2018-09-30T12:21:32.701Z,60.23
2018-09-30T12:22:32.730Z,59.63
2018-09-30T12:23:32.677Z,60.10
2018-09-30T12:24:32.667Z,59.19
2018-09-30T12:25:32.653Z,59.29
2018-09-30T12:26:32.638Z,60.10
2018-09-30T12:27:32.663Z,59.09
2018-09-30T12:28:32.619Z,60.10
2018-09-30T12:29:32.604Z,60.71
2018-09-30T12:30:32.596Z,59.19
2018-09-30T12:31:32.582Z,59.47
2018-09-30T12:32:32.622Z,60.07
2018-09-30T12:33:32.557Z,59.59
2018-09-30T12:34:32.564Z,58.65
2018-09-30T12:35:32.542Z,58.89
2018-09-30T12:36:32.546Z,59.90
2018-09-30T12:37:32.520Z,59.97
2018-09-30T12:38:32.526Z,59.97
2018-09-30T12:39:32.490Z,59.16
2018-09-30T12:40:32.490Z,58.56
2018-09-30T12:41:32.474Z,59.97
2018-09-30T12:42:32.456Z,60.78
2018-09-30T12:43:32.474Z,59.97
2018-09-30T12:44:32.439Z,58.43
2018-09-30T12:45:32.422Z,59.94
2018-09-30T12:46:32.415Z,59.03
2018-09-30T12:47:32.412Z,59.74
2018-09-30T12:48:32.423Z,58.33
2018-09-30T12:49:32.383Z,59.23
2018-09-30T12:50:32.374Z,59.23
2018-09-30T12:51:32.356Z,59.77
2018-09-30T12:52:32.352Z,59.87